sensor_id;sensor_type;location;lat;lon;timestamp;P1;durP1;ratioP1;P2;durP2;ratioP2
39050;SDS011;24805;55.852;37.644;2024-03-25T00:08:36;0.40;;;0.17;;
39050;SDS011;24805;55.852;37.644;2024-03-25T00:13:37;0.32;;;0.30;;
39050;SDS011;24805;55.852;37.644;2024-03-25T00:18:39;0.80;;;0.47;;
39050;SDS011;24805;55.852;37.644;2024-03-25T00:23:40;0.30;;;0.20;;
39050;SDS011;24805;55.852;37.644;2024-03-25T00:28:41;0.50;;;0.20;;
39050;SDS011;24805;55.852;37.644;2024-03-25T00:33:42;0.20;;;0.10;;
39050;SDS011;24805;55.852;37.644;2024-03-25T00:38:43;0.28;;;0.10;;
39050;SDS011;24805;55.852;37.644;2024-03-25T00:43:44;1.10;;;0.10;;
39050;SDS011;24805;55.852;37.644;2024-03-25T00:48:46;0.47;;;0.20;;
39050;SDS011;24805;55.852;37.644;2024-03-25T00:53:47;1.00;;;0.10;;
39050;SDS011;24805;55.852;37.644;2024-03-25T00:58:48;0.52;;;0.10;;
39050;SDS011;24805;55.852;37.644;2024-03-25T01:03:49;0.20;;;0.10;;
39050;SDS011;24805;55.852;37.644;2024-03-25T01:08:50;0.25;;;0.10;;
39050;SDS011;24805;55.852;37.644;2024-03-25T01:13:52;0.10;;;0.10;;
39050;SDS011;24805;55.852;37.644;2024-03-25T01:18:53;0.17;;;0.10;;
39050;SDS011;24805;55.852;37.644;2024-03-25T01:23:54;0.38;;;0.10;;
39050;SDS011;24805;55.852;37.644;2024-03-25T01:28:55;1.58;;;0.20;;
39050;SDS011;24805;55.852;37.644;2024-03-25T01:33:56;0.10;;;0.10;;
39050;SDS011;24805;55.852;37.644;2024-03-25T01:38:57;0.30;;;0.20;;
39050;SDS011;24805;55.852;37.644;2024-03-25T01:43:59;0.43;;;0.20;;
39050;SDS011;24805;55.852;37.644;2024-03-25T01:49:00;0.38;;;0.20;;
39050;SDS011;24805;55.852;37.644;2024-03-25T01:54:01;0.10;;;0.10;;
39050;SDS011;24805;55.852;37.644;2024-03-25T01:59:03;1.08;;;0.10;;
39050;SDS011;24805;55.852;37.644;2024-03-25T02:04:05;0.10;;;0.10;;
39050;SDS011;24805;55.852;37.644;2024-03-25T02:09:08;0.40;;;0.22;;
39050;SDS011;24805;55.852;37.644;2024-03-25T02:14:11;0.20;;;0.10;;
39050;SDS011;24805;55.852;37.644;2024-03-25T02:19:13;0.10;;;0.10;;
39050;SDS011;24805;55.852;37.644;2024-03-25T02:24:16;0.30;;;0.10;;
39050;SDS011;24805;55.852;37.644;2024-03-25T02:29:21;0.20;;;0.10;;
39050;SDS011;24805;55.852;37.644;2024-03-25T02:34:22;0.30;;;0.10;;
39050;SDS011;24805;55.852;37.644;2024-03-25T02:39:24;0.15;;;0.10;;
39050;SDS011;24805;55.852;37.644;2024-03-25T02:44:25;0.43;;;0.10;;
39050;SDS011;24805;55.852;37.644;2024-03-25T02:49:27;0.50;;;0.10;;
39050;SDS011;24805;55.852;37.644;2024-03-25T02:54:28;0.10;;;0.10;;
39050;SDS011;24805;55.852;37.644;2024-03-25T02:59:30;0.25;;;0.10;;
39050;SDS011;24805;55.852;37.644;2024-03-25T03:04:31;0.47;;;0.10;;
39050;SDS011;24805;55.852;37.644;2024-03-25T03:09:32;0.85;;;0.10;;
39050;SDS011;24805;55.852;37.644;2024-03-25T03:14:33;0.40;;;0.10;;
39050;SDS011;24805;55.852;37.644;2024-03-25T03:19:34;0.38;;;0.10;;
39050;SDS011;24805;55.852;37.644;2024-03-25T03:24:37;0.20;;;0.10;;
39050;SDS011;24805;55.852;37.644;2024-03-25T03:29:38;0.28;;;0.10;;
39050;SDS011;24805;55.852;37.644;2024-03-25T03:34:39;0.88;;;0.20;;
39050;SDS011;24805;55.852;37.644;2024-03-25T03:39:41;0.30;;;0.10;;
39050;SDS011;24805;55.852;37.644;2024-03-25T03:44:42;1.80;;;0.10;;
39050;SDS011;24805;55.852;37.644;2024-03-25T03:49:43;1.02;;;0.20;;
39050;SDS011;24805;55.852;37.644;2024-03-25T03:54:44;1.17;;;0.20;;
39050;SDS011;24805;55.852;37.644;2024-03-25T03:59:45;0.32;;;0.20;;
39050;SDS011;24805;55.852;37.644;2024-03-25T04:04:46;2.15;;;0.30;;
39050;SDS011;24805;55.852;37.644;2024-03-25T04:09:48;1.63;;;0.25;;
39050;SDS011;24805;55.852;37.644;2024-03-25T04:14:49;0.80;;;0.30;;
39050;SDS011;24805;55.852;37.644;2024-03-25T04:19:55;0.65;;;0.30;;
39050;SDS011;24805;55.852;37.644;2024-03-25T04:25:09;0.90;;;0.20;;
39050;SDS011;24805;55.852;37.644;2024-03-25T04:30:19;1.45;;;0.40;;
39050;SDS011;24805;55.852;37.644;2024-03-25T04:35:21;1.45;;;0.30;;
39050;SDS011;24805;55.852;37.644;2024-03-25T04:40:22;0.80;;;0.25;;
39050;SDS011;24805;55.852;37.644;2024-03-25T04:45:23;0.93;;;0.35;;
39050;SDS011;24805;55.852;37.644;2024-03-25T04:50:25;1.67;;;0.30;;
39050;SDS011;24805;55.852;37.644;2024-03-25T04:55:26;1.77;;;0.45;;
39050;SDS011;24805;55.852;37.644;2024-03-25T05:00:28;1.30;;;0.30;;
39050;SDS011;24805;55.852;37.644;2024-03-25T05:05:29;2.05;;;0.32;;
39050;SDS011;24805;55.852;37.644;2024-03-25T05:10:30;0.82;;;0.22;;
39050;SDS011;24805;55.852;37.644;2024-03-25T05:15:31;1.05;;;0.45;;
39050;SDS011;24805;55.852;37.644;2024-03-25T05:20:32;0.87;;;0.30;;
39050;SDS011;24805;55.852;37.644;2024-03-25T05:25:34;1.33;;;0.38;;
39050;SDS011;24805;55.852;37.644;2024-03-25T05:30:39;0.63;;;0.20;;
39050;SDS011;24805;55.852;37.644;2024-03-25T05:35:40;2.40;;;0.80;;
39050;SDS011;24805;55.852;37.644;2024-03-25T05:45:52;2.47;;;0.50;;
39050;SDS011;24805;55.852;37.644;2024-03-25T05:56:03;0.82;;;0.30;;
39050;SDS011;24805;55.852;37.644;2024-03-25T06:01:23;1.58;;;0.50;;
39050;SDS011;24805;55.852;37.644;2024-03-25T06:06:24;1.80;;;0.70;;
39050;SDS011;24805;55.852;37.644;2024-03-25T06:11:25;1.03;;;0.47;;
39050;SDS011;24805;55.852;37.644;2024-03-25T06:21:47;1.33;;;0.70;;
39050;SDS011;24805;55.852;37.644;2024-03-25T06:26:49;2.03;;;0.60;;
39050;SDS011;24805;55.852;37.644;2024-03-25T06:31:52;1.95;;;0.80;;
39050;SDS011;24805;55.852;37.644;2024-03-25T06:37:12;2.30;;;0.80;;
39050;SDS011;24805;55.852;37.644;2024-03-25T06:42:13;1.87;;;0.70;;
39050;SDS011;24805;55.852;37.644;2024-03-25T06:47:14;2.92;;;0.65;;
39050;SDS011;24805;55.852;37.644;2024-03-25T06:52:15;3.03;;;0.60;;
39050;SDS011;24805;55.852;37.644;2024-03-25T06:57:17;2.67;;;0.68;;
39050;SDS011;24805;55.852;37.644;2024-03-25T07:02:18;2.77;;;0.80;;
39050;SDS011;24805;55.852;37.644;2024-03-25T07:07:19;1.52;;;0.80;;
39050;SDS011;24805;55.852;37.644;2024-03-25T07:12:21;2.92;;;0.82;;
39050;SDS011;24805;55.852;37.644;2024-03-25T07:17:22;1.77;;;0.60;;
39050;SDS011;24805;55.852;37.644;2024-03-25T07:22:23;3.13;;;1.02;;
39050;SDS011;24805;55.852;37.644;2024-03-25T07:27:24;3.40;;;0.83;;
39050;SDS011;24805;55.852;37.644;2024-03-25T07:32:25;2.27;;;0.70;;
39050;SDS011;24805;55.852;37.644;2024-03-25T07:37:27;4.13;;;0.77;;
39050;SDS011;24805;55.852;37.644;2024-03-25T07:42:29;2.28;;;0.77;;
39050;SDS011;24805;55.852;37.644;2024-03-25T07:47:31;2.75;;;0.90;;
39050;SDS011;24805;55.852;37.644;2024-03-25T07:57:35;2.42;;;0.52;;
39050;SDS011;24805;55.852;37.644;2024-03-25T08:02:36;3.05;;;0.90;;
39050;SDS011;24805;55.852;37.644;2024-03-25T08:07:38;2.25;;;0.63;;
39050;SDS011;24805;55.852;37.644;2024-03-25T08:12:39;2.97;;;0.77;;
39050;SDS011;24805;55.852;37.644;2024-03-25T08:17:40;2.43;;;0.80;;
39050;SDS011;24805;55.852;37.644;2024-03-25T08:22:41;3.60;;;0.77;;
39050;SDS011;24805;55.852;37.644;2024-03-25T08:27:42;3.92;;;0.57;;
39050;SDS011;24805;55.852;37.644;2024-03-25T08:32:44;5.65;;;0.80;;
39050;SDS011;24805;55.852;37.644;2024-03-25T08:37:45;4.15;;;0.90;;
39050;SDS011;24805;55.852;37.644;2024-03-25T08:42:46;7.25;;;1.08;;
39050;SDS011;24805;55.852;37.644;2024-03-25T08:47:47;5.28;;;0.98;;
39050;SDS011;24805;55.852;37.644;2024-03-25T08:52:48;3.33;;;0.75;;
39050;SDS011;24805;55.852;37.644;2024-03-25T08:57:50;2.90;;;0.70;;
39050;SDS011;24805;55.852;37.644;2024-03-25T09:02:52;5.15;;;0.98;;
39050;SDS011;24805;55.852;37.644;2024-03-25T09:07:56;4.10;;;0.70;;
39050;SDS011;24805;55.852;37.644;2024-03-25T09:12:59;2.95;;;0.75;;
39050;SDS011;24805;55.852;37.644;2024-03-25T09:18:00;2.30;;;0.80;;
39050;SDS011;24805;55.852;37.644;2024-03-25T09:23:02;3.20;;;0.90;;
39050;SDS011;24805;55.852;37.644;2024-03-25T09:28:03;2.67;;;0.75;;
39050;SDS011;24805;55.852;37.644;2024-03-25T09:33:04;3.72;;;0.88;;
39050;SDS011;24805;55.852;37.644;2024-03-25T09:38:06;4.57;;;0.80;;
39050;SDS011;24805;55.852;37.644;2024-03-25T09:48:48;1.90;;;0.93;;
39050;SDS011;24805;55.852;37.644;2024-03-25T09:53:53;3.08;;;1.35;;
39050;SDS011;24805;55.852;37.644;2024-03-25T09:58:54;4.25;;;1.20;;
39050;SDS011;24805;55.852;37.644;2024-03-25T10:03:56;4.45;;;1.58;;
39050;SDS011;24805;55.852;37.644;2024-03-25T10:08:57;7.18;;;1.35;;
39050;SDS011;24805;55.852;37.644;2024-03-25T10:13:58;8.43;;;1.80;;
39050;SDS011;24805;55.852;37.644;2024-03-25T10:19:00;5.22;;;1.30;;
39050;SDS011;24805;55.852;37.644;2024-03-25T10:24:01;4.20;;;1.00;;
39050;SDS011;24805;55.852;37.644;2024-03-25T10:29:05;4.15;;;1.25;;
39050;SDS011;24805;55.852;37.644;2024-03-25T10:34:11;5.53;;;1.48;;
39050;SDS011;24805;55.852;37.644;2024-03-25T10:39:12;4.55;;;1.05;;
39050;SDS011;24805;55.852;37.644;2024-03-25T10:44:15;6.70;;;1.30;;
39050;SDS011;24805;55.852;37.644;2024-03-25T10:54:25;3.63;;;1.40;;
39050;SDS011;24805;55.852;37.644;2024-03-25T10:59:26;3.03;;;1.00;;
39050;SDS011;24805;55.852;37.644;2024-03-25T11:04:30;6.32;;;1.83;;
39050;SDS011;24805;55.852;37.644;2024-03-25T11:09:32;3.40;;;1.45;;
39050;SDS011;24805;55.852;37.644;2024-03-25T11:14:33;5.60;;;1.42;;
39050;SDS011;24805;55.852;37.644;2024-03-25T11:19:36;2.95;;;0.90;;
39050;SDS011;24805;55.852;37.644;2024-03-25T11:24:37;7.28;;;1.50;;
39050;SDS011;24805;55.852;37.644;2024-03-25T11:29:39;7.00;;;1.40;;
39050;SDS011;24805;55.852;37.644;2024-03-25T11:34:49;4.85;;;1.10;;
39050;SDS011;24805;55.852;37.644;2024-03-25T11:40:00;2.25;;;0.85;;
39050;SDS011;24805;55.852;37.644;2024-03-25T11:45:05;3.33;;;1.15;;
39050;SDS011;24805;55.852;37.644;2024-03-25T11:50:08;4.28;;;1.30;;
39050;SDS011;24805;55.852;37.644;2024-03-25T11:55:10;3.53;;;1.30;;
39050;SDS011;24805;55.852;37.644;2024-03-25T12:00:12;4.22;;;1.40;;
39050;SDS011;24805;55.852;37.644;2024-03-25T12:05:19;4.50;;;1.40;;
39050;SDS011;24805;55.852;37.644;2024-03-25T12:15:58;6.88;;;4.47;;
39050;SDS011;24805;55.852;37.644;2024-03-25T12:21:00;4.43;;;1.50;;
39050;SDS011;24805;55.852;37.644;2024-03-25T12:26:02;3.38;;;1.30;;
39050;SDS011;24805;55.852;37.644;2024-03-25T12:31:07;3.33;;;1.33;;
39050;SDS011;24805;55.852;37.644;2024-03-25T12:36:11;3.88;;;1.67;;
39050;SDS011;24805;55.852;37.644;2024-03-25T12:41:12;4.10;;;1.55;;
39050;SDS011;24805;55.852;37.644;2024-03-25T12:46:14;10.45;;;1.83;;
39050;SDS011;24805;55.852;37.644;2024-03-25T12:51:15;5.75;;;1.50;;
39050;SDS011;24805;55.852;37.644;2024-03-25T12:56:16;4.65;;;1.63;;
39050;SDS011;24805;55.852;37.644;2024-03-25T13:01:18;5.88;;;1.27;;
39050;SDS011;24805;55.852;37.644;2024-03-25T13:06:19;4.97;;;1.38;;
39050;SDS011;24805;55.852;37.644;2024-03-25T13:11:20;3.50;;;1.08;;
39050;SDS011;24805;55.852;37.644;2024-03-25T13:16:21;3.08;;;1.08;;
39050;SDS011;24805;55.852;37.644;2024-03-25T13:21:22;7.82;;;1.40;;
39050;SDS011;24805;55.852;37.644;2024-03-25T13:26:25;6.57;;;3.03;;
39050;SDS011;24805;55.852;37.644;2024-03-25T13:31:27;3.22;;;1.30;;
39050;SDS011;24805;55.852;37.644;2024-03-25T13:36:28;6.05;;;1.23;;
39050;SDS011;24805;55.852;37.644;2024-03-25T13:46:30;2.93;;;1.00;;
39050;SDS011;24805;55.852;37.644;2024-03-25T13:51:31;5.88;;;1.30;;
39050;SDS011;24805;55.852;37.644;2024-03-25T13:56:33;10.85;;;1.60;;
39050;SDS011;24805;55.852;37.644;2024-03-25T14:01:34;4.45;;;1.50;;
39050;SDS011;24805;55.852;37.644;2024-03-25T14:06:35;4.63;;;2.35;;
39050;SDS011;24805;55.852;37.644;2024-03-25T14:11:37;6.65;;;1.45;;
39050;SDS011;24805;55.852;37.644;2024-03-25T14:16:38;4.18;;;1.27;;
39050;SDS011;24805;55.852;37.644;2024-03-25T14:21:39;4.82;;;1.20;;
39050;SDS011;24805;55.852;37.644;2024-03-25T14:26:40;9.88;;;1.40;;
39050;SDS011;24805;55.852;37.644;2024-03-25T14:31:41;7.65;;;1.75;;
39050;SDS011;24805;55.852;37.644;2024-03-25T14:36:42;8.63;;;1.50;;
39050;SDS011;24805;55.852;37.644;2024-03-25T14:41:45;5.97;;;1.63;;
39050;SDS011;24805;55.852;37.644;2024-03-25T14:46:46;12.20;;;1.90;;
39050;SDS011;24805;55.852;37.644;2024-03-25T14:51:47;9.73;;;1.70;;
39050;SDS011;24805;55.852;37.644;2024-03-25T14:56:48;9.43;;;3.70;;
39050;SDS011;24805;55.852;37.644;2024-03-25T15:01:50;11.20;;;1.90;;
39050;SDS011;24805;55.852;37.644;2024-03-25T15:06:51;8.77;;;2.03;;
39050;SDS011;24805;55.852;37.644;2024-03-25T15:11:52;17.63;;;2.57;;
39050;SDS011;24805;55.852;37.644;2024-03-25T15:16:53;9.57;;;1.97;;
39050;SDS011;24805;55.852;37.644;2024-03-25T15:21:55;13.63;;;2.60;;
39050;SDS011;24805;55.852;37.644;2024-03-25T15:26:56;13.80;;;2.03;;
39050;SDS011;24805;55.852;37.644;2024-03-25T15:31:57;4.93;;;1.80;;
39050;SDS011;24805;55.852;37.644;2024-03-25T15:36:58;6.93;;;1.97;;
39050;SDS011;24805;55.852;37.644;2024-03-25T15:41:59;8.13;;;1.98;;
39050;SDS011;24805;55.852;37.644;2024-03-25T15:47:01;8.80;;;2.03;;
39050;SDS011;24805;55.852;37.644;2024-03-25T15:52:02;7.35;;;2.63;;
39050;SDS011;24805;55.852;37.644;2024-03-25T15:57:03;5.73;;;2.53;;
39050;SDS011;24805;55.852;37.644;2024-03-25T16:02:05;6.63;;;2.13;;
39050;SDS011;24805;55.852;37.644;2024-03-25T16:07:06;10.02;;;2.88;;
39050;SDS011;24805;55.852;37.644;2024-03-25T16:12:07;9.00;;;2.47;;
39050;SDS011;24805;55.852;37.644;2024-03-25T16:17:09;10.50;;;2.60;;
39050;SDS011;24805;55.852;37.644;2024-03-25T16:22:11;6.82;;;2.25;;
39050;SDS011;24805;55.852;37.644;2024-03-25T16:27:12;7.65;;;2.00;;
39050;SDS011;24805;55.852;37.644;2024-03-25T16:32:14;9.20;;;2.07;;
39050;SDS011;24805;55.852;37.644;2024-03-25T16:37:15;5.57;;;2.33;;
39050;SDS011;24805;55.852;37.644;2024-03-25T16:42:17;8.18;;;2.67;;
39050;SDS011;24805;55.852;37.644;2024-03-25T16:47:18;6.50;;;2.20;;
39050;SDS011;24805;55.852;37.644;2024-03-25T16:52:20;7.87;;;2.87;;
39050;SDS011;24805;55.852;37.644;2024-03-25T16:57:21;8.27;;;2.35;;
39050;SDS011;24805;55.852;37.644;2024-03-25T17:02:22;6.22;;;1.90;;
39050;SDS011;24805;55.852;37.644;2024-03-25T17:07:23;8.75;;;2.47;;
39050;SDS011;24805;55.852;37.644;2024-03-25T17:12:25;10.60;;;3.28;;
39050;SDS011;24805;55.852;37.644;2024-03-25T17:17:26;8.50;;;3.03;;
39050;SDS011;24805;55.852;37.644;2024-03-25T17:22:28;9.70;;;2.53;;
39050;SDS011;24805;55.852;37.644;2024-03-25T17:27:29;11.45;;;2.92;;
39050;SDS011;24805;55.852;37.644;2024-03-25T17:32:30;9.45;;;3.42;;
39050;SDS011;24805;55.852;37.644;2024-03-25T17:37:32;15.70;;;4.05;;
39050;SDS011;24805;55.852;37.644;2024-03-25T17:42:33;16.55;;;4.45;;
39050;SDS011;24805;55.852;37.644;2024-03-25T17:47:34;11.25;;;4.03;;
39050;SDS011;24805;55.852;37.644;2024-03-25T17:52:36;9.30;;;3.17;;
39050;SDS011;24805;55.852;37.644;2024-03-25T17:57:37;11.15;;;4.25;;
39050;SDS011;24805;55.852;37.644;2024-03-25T18:02:38;14.00;;;3.95;;
39050;SDS011;24805;55.852;37.644;2024-03-25T18:07:39;8.90;;;3.90;;
39050;SDS011;24805;55.852;37.644;2024-03-25T18:12:43;11.70;;;3.67;;
39050;SDS011;24805;55.852;37.644;2024-03-25T18:17:44;10.98;;;3.85;;
39050;SDS011;24805;55.852;37.644;2024-03-25T18:22:46;11.38;;;3.88;;
39050;SDS011;24805;55.852;37.644;2024-03-25T18:27:47;10.47;;;4.00;;
39050;SDS011;24805;55.852;37.644;2024-03-25T18:32:48;10.40;;;3.57;;
39050;SDS011;24805;55.852;37.644;2024-03-25T18:37:51;10.27;;;3.45;;
39050;SDS011;24805;55.852;37.644;2024-03-25T18:42:53;9.40;;;3.53;;
39050;SDS011;24805;55.852;37.644;2024-03-25T18:47:54;10.00;;;3.70;;
39050;SDS011;24805;55.852;37.644;2024-03-25T18:52:56;14.23;;;3.80;;
39050;SDS011;24805;55.852;37.644;2024-03-25T18:57:57;7.75;;;3.38;;
39050;SDS011;24805;55.852;37.644;2024-03-25T19:02:58;10.93;;;3.83;;
39050;SDS011;24805;55.852;37.644;2024-03-25T19:08:00;10.13;;;2.78;;
39050;SDS011;24805;55.852;37.644;2024-03-25T19:13:01;13.00;;;3.63;;
39050;SDS011;24805;55.852;37.644;2024-03-25T19:18:02;12.35;;;3.03;;
39050;SDS011;24805;55.852;37.644;2024-03-25T19:23:04;13.00;;;3.17;;
39050;SDS011;24805;55.852;37.644;2024-03-25T19:28:05;8.93;;;3.28;;
39050;SDS011;24805;55.852;37.644;2024-03-25T19:33:06;7.85;;;3.17;;
39050;SDS011;24805;55.852;37.644;2024-03-25T19:38:07;11.20;;;3.80;;
39050;SDS011;24805;55.852;37.644;2024-03-25T19:43:08;7.65;;;2.88;;
39050;SDS011;24805;55.852;37.644;2024-03-25T19:48:10;13.23;;;3.63;;
39050;SDS011;24805;55.852;37.644;2024-03-25T19:53:11;14.35;;;4.53;;
39050;SDS011;24805;55.852;37.644;2024-03-25T19:58:12;9.27;;;3.72;;
39050;SDS011;24805;55.852;37.644;2024-03-25T20:03:13;11.27;;;3.42;;
39050;SDS011;24805;55.852;37.644;2024-03-25T20:08:14;10.23;;;4.13;;
39050;SDS011;24805;55.852;37.644;2024-03-25T20:13:15;12.60;;;4.25;;
39050;SDS011;24805;55.852;37.644;2024-03-25T20:18:17;12.60;;;6.00;;
39050;SDS011;24805;55.852;37.644;2024-03-25T20:23:18;12.23;;;3.83;;
39050;SDS011;24805;55.852;37.644;2024-03-25T20:28:19;7.70;;;3.40;;
39050;SDS011;24805;55.852;37.644;2024-03-25T20:33:20;13.80;;;3.63;;
39050;SDS011;24805;55.852;37.644;2024-03-25T20:38:21;10.30;;;4.25;;
39050;SDS011;24805;55.852;37.644;2024-03-25T20:43:23;9.48;;;4.53;;
39050;SDS011;24805;55.852;37.644;2024-03-25T20:48:24;13.32;;;4.30;;
39050;SDS011;24805;55.852;37.644;2024-03-25T20:53:25;10.63;;;3.43;;
39050;SDS011;24805;55.852;37.644;2024-03-25T20:58:26;13.02;;;5.53;;
39050;SDS011;24805;55.852;37.644;2024-03-25T21:03:27;11.02;;;4.90;;
39050;SDS011;24805;55.852;37.644;2024-03-25T21:08:28;15.25;;;5.55;;
39050;SDS011;24805;55.852;37.644;2024-03-25T21:13:30;17.20;;;6.45;;
39050;SDS011;24805;55.852;37.644;2024-03-25T21:18:31;21.55;;;8.95;;
39050;SDS011;24805;55.852;37.644;2024-03-25T21:23:32;13.70;;;6.10;;
39050;SDS011;24805;55.852;37.644;2024-03-25T21:28:33;16.23;;;7.13;;
39050;SDS011;24805;55.852;37.644;2024-03-25T21:33:36;18.95;;;6.72;;
39050;SDS011;24805;55.852;37.644;2024-03-25T21:38:37;13.68;;;5.25;;
39050;SDS011;24805;55.852;37.644;2024-03-25T21:43:38;52.65;;;24.23;;
39050;SDS011;24805;55.852;37.644;2024-03-25T21:48:40;7.95;;;3.17;;
39050;SDS011;24805;55.852;37.644;2024-03-25T21:53:41;9.68;;;4.40;;
39050;SDS011;24805;55.852;37.644;2024-03-25T21:58:42;7.80;;;3.35;;
39050;SDS011;24805;55.852;37.644;2024-03-25T22:03:45;7.35;;;3.20;;
39050;SDS011;24805;55.852;37.644;2024-03-25T22:08:47;5.75;;;2.38;;
39050;SDS011;24805;55.852;37.644;2024-03-25T22:13:49;5.72;;;2.05;;
39050;SDS011;24805;55.852;37.644;2024-03-25T22:18:50;6.15;;;2.15;;
39050;SDS011;24805;55.852;37.644;2024-03-25T22:23:52;5.25;;;2.10;;
39050;SDS011;24805;55.852;37.644;2024-03-25T22:28:53;7.05;;;2.25;;
39050;SDS011;24805;55.852;37.644;2024-03-25T22:33:54;4.97;;;2.17;;
39050;SDS011;24805;55.852;37.644;2024-03-25T22:38:56;8.38;;;3.25;;
39050;SDS011;24805;55.852;37.644;2024-03-25T22:43:57;9.75;;;2.25;;
39050;SDS011;24805;55.852;37.644;2024-03-25T22:48:58;8.98;;;2.85;;
39050;SDS011;24805;55.852;37.644;2024-03-25T22:53:59;9.98;;;2.58;;
39050;SDS011;24805;55.852;37.644;2024-03-25T22:59:00;8.82;;;3.35;;
39050;SDS011;24805;55.852;37.644;2024-03-25T23:09:03;7.75;;;2.85;;
39050;SDS011;24805;55.852;37.644;2024-03-25T23:14:04;7.60;;;3.08;;
39050;SDS011;24805;55.852;37.644;2024-03-25T23:19:05;7.63;;;2.72;;
39050;SDS011;24805;55.852;37.644;2024-03-25T23:24:07;7.82;;;2.30;;
39050;SDS011;24805;55.852;37.644;2024-03-25T23:29:08;8.13;;;2.78;;
39050;SDS011;24805;55.852;37.644;2024-03-25T23:34:10;7.38;;;2.50;;
39050;SDS011;24805;55.852;37.644;2024-03-25T23:39:11;7.80;;;2.38;;
39050;SDS011;24805;55.852;37.644;2024-03-25T23:44:12;7.05;;;2.83;;
39050;SDS011;24805;55.852;37.644;2024-03-25T23:49:13;9.10;;;3.00;;
39050;SDS011;24805;55.852;37.644;2024-03-25T23:54:14;8.63;;;2.72;;
39050;SDS011;24805;55.852;37.644;2024-03-25T23:59:16;8.48;;;2.65;;
